»·PEaware :: AAL280 KPHX-KPSP

AAL280 :: KPHX-KPSP

FLIGHT INFORMATION

Flight Status: Arrived
Operator:
American Airlines
More flights by this operator :: More flights under this callsign
Pilot: Ion I. (24133)
Aircraft: BOEING 737-800
(B738)
More flights by this aircraft type
Origin: KPHX Phoenix Sky Harbor Intl
United States
Destination: KPSP Palm Springs Intl
United States
More flights between these airports :: More routes between these airports
Route: KEENS2 HRRBR CURIV J212 DECAS SBONO1
File this flight plan on PilotEdge
Remarks:
Altitude:
(Current/Filed)
28,000ft
Speed:
(Current/Filed)
460kts
Departed: 08-Jan-21 02:22 PM
Arrived: 08-Jan-21 03:11 PM
Distance/Time
Traveled:
226nm/0:49
Distance/Time
To Go:
Arrived

Flight Plot

Page will automatically refresh every two minutes.

Flight plan parsing failed; only flown route is shown


Map Options




Map Legend


Flown Route
Filed Route
Departure Airport
Arrival Airport
Navaid (VOR, NDB)
Fix

Horizontal Profiles

Position Reports

Time Latitude Longitude Heading Altitude Ground
Speed
08-Jan-21 13:55 33.437014 -111.994993 90 1143ft 0kts
08-Jan-21 13:56 33.437014 -111.994993 90 1143ft 0kts
08-Jan-21 13:57 33.437014 -111.994993 90 1143ft 0kts
08-Jan-21 13:58 33.437014 -111.994993 90 1143ft 0kts
08-Jan-21 13:59 33.437304 -111.994993 90 1143ft 0kts
08-Jan-21 14:00 33.437304 -111.994993 90 1143ft 0kts
08-Jan-21 14:01 33.437304 -111.994993 90 1143ft 0kts
08-Jan-21 14:02 33.437304 -111.994993 90 1143ft 0kts
08-Jan-21 14:03 33.437304 -111.994993 90 1143ft 0kts
08-Jan-21 14:04 33.437304 -111.994993 90 1143ft 0kts
08-Jan-21 14:05 33.437304 -111.994993 90 1143ft 0kts
08-Jan-21 14:06 33.437304 -111.994993 90 1143ft 0kts
08-Jan-21 14:07 33.437304 -111.994993 90 1143ft 0kts
08-Jan-21 14:08 33.437304 -111.994993 90 1143ft 0kts
08-Jan-21 14:09 33.437304 -111.994993 90 1143ft 0kts
08-Jan-21 14:10 33.437304 -111.994993 90 1143ft 0kts
08-Jan-21 14:11 33.437304 -111.994993 90 1143ft 0kts
08-Jan-21 14:12 33.437304 -111.994993 90 1143ft 0kts
08-Jan-21 14:13 33.437053 -111.995353 1 1143ft 2kts
08-Jan-21 14:14 33.437015 -111.995355 0 1143ft 0kts
08-Jan-21 14:15 33.437015 -111.995355 0 1143ft 0kts
08-Jan-21 14:16 33.437015 -111.995355 0 1143ft 0kts
08-Jan-21 14:17 33.437750 -111.995355 359 1143ft 12kts
08-Jan-21 14:19 33.438265 -111.995360 359 1143ft 0kts
08-Jan-21 14:20 33.439277 -111.992432 15 1143ft 7kts
08-Jan-21 14:21 33.440471 -111.992271 18 1143ft 9kts
08-Jan-21 14:22 33.440844 -112.013841 269 1144ft 158kts
08-Jan-21 14:23 33.430836 -112.071366 250 3239ft 213kts
08-Jan-21 14:24 33.409427 -112.139854 249 6357ft 223kts
08-Jan-21 14:25 33.393318 -112.220608 277 8398ft 285kts
08-Jan-21 14:26 33.407965 -112.314101 280 11523ft 300kts
08-Jan-21 14:27 33.424370 -112.424210 279 13164ft 360kts
08-Jan-21 14:28 33.441864 -112.544039 279 16177ft 371kts
08-Jan-21 14:29 33.451307 -112.668932 270 18933ft 382kts
08-Jan-21 14:30 33.454090 -112.798295 275 21315ft 396kts
08-Jan-21 14:30 33.472660 -112.907824 281 23081ft 407kts
08-Jan-21 14:32 33.501736 -113.063912 280 25344ft 417kts
08-Jan-21 14:33 33.527473 -113.200189 280 27497ft 414kts
08-Jan-21 14:33 33.548135 -113.312404 279 28123ft 414kts
08-Jan-21 14:34 33.572451 -113.446312 279 28126ft 410kts
08-Jan-21 14:36 33.601357 -113.601918 279 28125ft 410kts
08-Jan-21 14:37 33.626068 -113.735451 279 28127ft 409kts
08-Jan-21 14:37 33.646512 -113.846684 279 28140ft 409kts
08-Jan-21 14:38 33.670925 -113.980061 279 28140ft 409kts
08-Jan-21 14:39 33.695106 -114.113422 279 28137ft 408kts
08-Jan-21 14:40 33.719823 -114.246727 279 28135ft 408kts
08-Jan-21 14:41 33.743618 -114.379136 279 27637ft 396kts
08-Jan-21 14:42 33.766308 -114.506461 279 26631ft 387kts
08-Jan-21 14:43 33.778957 -114.633596 271 25632ft 381kts
08-Jan-21 14:44 33.785456 -114.760301 272 24630ft 377kts
08-Jan-21 14:45 33.792282 -114.885039 272 24130ft 365kts
08-Jan-21 14:46 33.798724 -114.997721 272 24119ft 311kts
08-Jan-21 14:47 33.804850 -115.100716 272 23011ft 338kts
08-Jan-21 14:48 33.811406 -115.220993 272 21056ft 365kts
08-Jan-21 14:49 33.817665 -115.341281 272 19083ft 354kts
08-Jan-21 14:50 33.826174 -115.457707 281 17192ft 346kts
08-Jan-21 14:51 33.858769 -115.565431 290 15334ft 340kts
08-Jan-21 14:52 33.892825 -115.671221 290 13508ft 336kts
08-Jan-21 14:53 33.913257 -115.778914 270 11979ft 327kts
08-Jan-21 14:54 33.906189 -115.887320 266 11087ft 325kts
08-Jan-21 14:55 33.899492 -115.990620 266 10709ft 315kts
08-Jan-21 14:56 33.892840 -116.090441 266 10051ft 282kts
08-Jan-21 14:57 33.887923 -116.174383 269 9423ft 229kts
08-Jan-21 14:58 33.901221 -116.242895 301 9030ft 219kts
08-Jan-21 14:59 33.946641 -116.290464 330 8543ft 212kts
08-Jan-21 15:00 34.003642 -116.317047 340 8126ft 222kts
08-Jan-21 15:01 34.061698 -116.342779 333 7627ft 217kts
08-Jan-21 15:02 34.105375 -116.392668 296 7274ft 220kts
08-Jan-21 15:03 34.112365 -116.465586 258 6612ft 219kts
08-Jan-21 15:04 34.083246 -116.531575 228 6040ft 223kts
08-Jan-21 15:05 34.028215 -116.573159 208 4778ft 230kts
08-Jan-21 15:06 33.971678 -116.589962 181 3612ft 186kts
08-Jan-21 15:07 33.924756 -116.581760 164 2627ft 162kts
08-Jan-21 15:08 33.885352 -116.557194 143 1792ft 159kts
08-Jan-21 15:09 33.851864 -116.527315 143 1002ft 146kts
08-Jan-21 15:10 33.825899 -116.504466 170 485ft 19kts
08-Jan-21 15:11 33.823363 -116.504086 193 485ft 0kts
08-Jan-21 15:12 33.822997 -116.505106 270 485ft 7kts
08-Jan-21 15:13 33.823124 -116.505791 285 485ft 0kts
08-Jan-21 15:14 33.823124 -116.505792 285 485ft 0kts
08-Jan-21 15:15 33.823124 -116.505792 285 485ft 0kts
08-Jan-21 15:16 33.823124 -116.505792 285 485ft 0kts

Navigation Log

Ident Type
Flight plan parsing failed, navigation log unavailable